createdAt,value
2017-11-21T00:00:20.059Z,69
2017-11-21T00:11:19.699Z,69.9
2017-11-21T00:22:19.776Z,70.3
2017-11-21T00:33:19.860Z,70.6
2017-11-21T00:44:20.066Z,71.4
2017-11-21T00:55:19.662Z,71.8
2017-11-21T01:06:19.446Z,72.4
2017-11-21T01:17:19.537Z,72.4
2017-11-21T01:28:19.535Z,72.9
2017-11-21T01:39:19.495Z,73.5
2017-11-21T01:50:19.959Z,75.7
2017-11-21T02:02:20.354Z,77.6
2017-11-21T02:13:19.538Z,79.1
2017-11-21T02:24:19.842Z,79.9
2017-11-21T02:35:19.319Z,80.7
2017-11-21T02:46:19.341Z,81.2
2017-11-21T02:57:19.284Z,81.6
2017-11-21T03:08:19.275Z,82.4
2017-11-21T03:19:19.739Z,83.1
2017-11-21T03:30:19.821Z,83.9
2017-11-21T03:41:19.574Z,84.7
2017-11-21T03:52:19.458Z,85.3
2017-11-21T04:03:19.832Z,86.2
2017-11-21T04:14:18.932Z,86.3
2017-11-21T04:25:19.418Z,87.2
2017-11-21T04:36:19.535Z,86.6
2017-11-21T04:47:19.871Z,87.9
2017-11-21T04:58:19.485Z,89.5
2017-11-21T05:09:18.513Z,102.5
2017-11-21T05:20:19.741Z,94.1
2017-11-21T05:31:19.129Z,95.5
2017-11-21T05:42:19.920Z,96.7
2017-11-21T05:53:19.886Z,97
2017-11-21T06:04:20.214Z,98.3
2017-11-21T06:15:19.849Z,99.4
2017-11-21T06:26:19.958Z,100.2
2017-11-21T06:37:19.214Z,101.7
2017-11-21T06:48:19.820Z,102.8
2017-11-21T06:59:18.715Z,123.6
2017-11-21T07:10:19.904Z,105.3
2017-11-21T07:21:20.001Z,108
2017-11-21T07:32:19.609Z,109.8
2017-11-21T07:43:19.200Z,111
2017-11-21T07:54:19.795Z,113
2017-11-21T08:05:20.120Z,114.5
2017-11-21T08:16:19.152Z,115.1
2017-11-21T08:27:19.117Z,152
2017-11-21T08:38:20.444Z,117.6
2017-11-21T08:49:20.431Z,118.1
2017-11-21T09:00:19.458Z,119.7
2017-11-21T09:11:19.394Z,120.7
2017-11-21T09:22:19.141Z,122.2
2017-11-21T09:33:19.573Z,125.2
2017-11-21T09:44:20.135Z,126.6
2017-11-21T09:55:21.131Z,128.7
2017-11-21T10:06:19.952Z,130.4
2017-11-21T10:17:19.906Z,131.2
2017-11-21T10:28:20.189Z,132.5
2017-11-21T10:39:19.276Z,133.3
2017-11-21T10:50:20.096Z,134.5
2017-11-21T11:01:19.917Z,135.4
2017-11-21T11:12:19.422Z,135.7
